createdAt,value
2019-01-24T00:00:17.257Z,44.00
2019-01-24T00:02:45.473Z,41.77
2019-01-24T00:05:13.711Z,42.93
2019-01-24T00:07:41.892Z,43.27
2019-01-24T00:10:11.752Z,42.60
2019-01-24T00:12:39.969Z,44.33
2019-01-24T00:15:09.767Z,45.33
2019-01-24T00:17:37.980Z,44.90
2019-01-24T00:20:11.607Z,46.47
2019-01-24T00:22:39.833Z,46.00
2019-01-24T00:25:09.878Z,46.30
2019-01-24T00:27:38.088Z,47.33
2019-01-24T00:30:10.579Z,46.13
2019-01-24T00:32:39.465Z,44.80
2019-01-24T00:35:09.600Z,43.37
2019-01-24T00:37:37.809Z,45.27
2019-01-24T00:40:09.316Z,45.03
2019-01-24T00:42:37.533Z,47.40
2019-01-24T00:45:08.541Z,44.37
2019-01-24T00:47:36.769Z,46.80
2019-01-24T00:50:08.246Z,47.93
2019-01-24T00:52:36.477Z,46.73
2019-01-24T00:55:07.956Z,45.23
2019-01-24T00:57:36.175Z,47.03
2019-01-24T01:00:07.656Z,45.00
2019-01-24T01:02:35.865Z,43.73
2019-01-24T01:05:07.426Z,46.40
2019-01-24T01:07:35.637Z,45.23
2019-01-24T01:10:06.781Z,45.33
2019-01-24T01:12:35.004Z,44.10
2019-01-24T01:15:06.320Z,43.87
2019-01-24T01:17:34.545Z,45.87
2019-01-24T01:20:03.797Z,46.40
2019-01-24T01:22:32.020Z,46.20
2019-01-24T01:25:00.249Z,46.37
2019-01-24T01:27:28.461Z,46.23
2019-01-24T01:29:56.691Z,45.20
2019-01-24T01:32:24.900Z,48.13
2019-01-24T01:34:53.125Z,47.60
2019-01-24T01:37:21.340Z,46.37
2019-01-24T01:39:49.566Z,45.23
2019-01-24T01:42:17.865Z,48.20
2019-01-24T01:44:46.076Z,49.93
2019-01-24T01:47:14.325Z,47.33
2019-01-24T01:49:42.543Z,48.43
2019-01-24T01:52:10.765Z,46.70
2019-01-24T01:54:38.981Z,49.27
2019-01-24T01:57:07.204Z,47.93
2019-01-24T01:59:35.449Z,48.53
2019-01-24T02:02:03.668Z,46.83
2019-01-24T02:04:31.886Z,47.53
2019-01-24T02:07:00.104Z,46.80
2019-01-24T02:09:28.329Z,47.17
2019-01-24T02:11:56.540Z,47.20
2019-01-24T02:14:24.765Z,47.43
2019-01-24T02:16:52.972Z,49.50
2019-01-24T02:19:21.196Z,48.00
2019-01-24T02:21:49.412Z,47.67
2019-01-24T02:24:17.648Z,51.07
2019-01-24T02:26:45.937Z,49.70
2019-01-24T02:29:14.149Z,49.27
2019-01-24T02:31:42.378Z,47.90
2019-01-24T02:34:10.585Z,50.40
2019-01-24T02:36:38.835Z,49.30
2019-01-24T02:39:07.821Z,50.03
2019-01-24T02:41:36.034Z,48.53
2019-01-24T02:44:04.272Z,50.37
2019-01-24T02:46:32.485Z,48.07
2019-01-24T02:49:00.719Z,49.90
2019-01-24T02:51:28.936Z,47.17
2019-01-24T02:53:57.182Z,44.90
2019-01-24T02:56:25.398Z,45.77
2019-01-24T02:58:53.618Z,47.07
2019-01-24T03:01:21.835Z,47.47
2019-01-24T03:03:50.066Z,46.90
2019-01-24T03:06:18.280Z,47.00
2019-01-24T03:08:46.487Z,46.77
2019-01-24T03:11:14.705Z,45.97
2019-01-24T03:13:42.923Z,45.83
2019-01-24T03:16:11.148Z,48.43
2019-01-24T03:18:39.360Z,45.57
2019-01-24T03:21:07.597Z,46.00
2019-01-24T03:23:35.822Z,45.57
2019-01-24T03:26:04.036Z,46.33
2019-01-24T03:28:32.252Z,45.90
2019-01-24T03:31:00.481Z,46.43
2019-01-24T03:33:28.709Z,45.07
2019-01-24T03:35:56.902Z,45.07
2019-01-24T03:38:25.120Z,42.63
2019-01-24T03:40:53.594Z,45.27
2019-01-24T03:43:21.838Z,45.87
2019-01-24T03:45:50.046Z,47.43
2019-01-24T03:48:18.282Z,46.77
2019-01-24T03:50:46.508Z,45.17
2019-01-24T03:53:14.721Z,46.23
2019-01-24T03:55:42.937Z,48.27
2019-01-24T03:58:11.169Z,45.77
2019-01-24T04:00:39.389Z,48.53
2019-01-24T04:03:07.609Z,45.97
2019-01-24T04:05:35.835Z,46.37
2019-01-24T04:08:04.053Z,46.43
2019-01-24T04:10:32.270Z,47.37
2019-01-24T04:13:00.502Z,46.60
2019-01-24T04:15:28.785Z,45.97
2019-01-24T04:17:57.005Z,48.13
2019-01-24T04:20:25.222Z,48.73
2019-01-24T04:22:53.446Z,47.37
2019-01-24T04:25:21.684Z,46.00
2019-01-24T04:27:49.888Z,46.07
2019-01-24T04:30:21.151Z,46.10
2019-01-24T04:32:49.362Z,50.90
2019-01-24T04:35:19.903Z,47.97
2019-01-24T04:37:47.753Z,48.87
2019-01-24T04:40:18.591Z,49.90
2019-01-24T04:42:46.818Z,48.10
2019-01-24T04:45:17.460Z,51.67
2019-01-24T04:47:45.669Z,51.60
2019-01-24T04:50:16.518Z,52.67
2019-01-24T04:52:44.737Z,54.17
2019-01-24T04:55:15.690Z,51.67
2019-01-24T04:57:43.909Z,53.43
2019-01-24T05:00:18.285Z,52.23
2019-01-24T05:02:46.507Z,49.20
2019-01-24T05:05:14.716Z,50.97
2019-01-24T05:07:42.938Z,48.80
2019-01-24T05:10:11.153Z,50.23
2019-01-24T05:12:39.380Z,49.10
2019-01-24T05:15:07.594Z,49.50
2019-01-24T05:17:35.824Z,50.60
2019-01-24T05:20:07.539Z,46.80
2019-01-24T05:22:35.749Z,47.10
2019-01-24T05:25:06.973Z,46.53
2019-01-24T05:27:35.204Z,44.80
2019-01-24T05:30:06.217Z,46.13
2019-01-24T05:32:34.450Z,47.23
2019-01-24T05:35:02.665Z,46.17
2019-01-24T05:37:30.872Z,45.53
2019-01-24T05:39:59.221Z,44.20
2019-01-24T05:42:27.441Z,44.40
2019-01-24T05:44:55.677Z,45.70
2019-01-24T05:47:23.914Z,46.77
2019-01-24T05:49:52.121Z,44.97
2019-01-24T05:52:20.337Z,45.20
2019-01-24T05:55:12.202Z,47.67
2019-01-24T05:57:40.414Z,46.97
2019-01-24T06:00:11.886Z,47.70
2019-01-24T06:02:40.106Z,45.53
2019-01-24T06:05:11.158Z,46.73
2019-01-24T06:07:39.380Z,45.67
2019-01-24T06:10:13.372Z,47.83
2019-01-24T06:12:41.613Z,54.15
2019-01-24T06:15:13.233Z,48.87
2019-01-24T06:17:41.444Z,47.00
2019-01-24T06:20:10.729Z,46.47
2019-01-24T06:22:38.969Z,45.37
2019-01-24T06:25:10.528Z,46.00
2019-01-24T06:27:38.741Z,44.83
2019-01-24T06:30:18.626Z,50.50
2019-01-24T06:32:47.093Z,47.90
2019-01-24T06:35:15.312Z,46.37
2019-01-24T06:37:43.532Z,44.80
2019-01-24T06:40:14.088Z,44.77
2019-01-24T06:42:42.312Z,45.50
2019-01-24T06:45:16.297Z,46.00
2019-01-24T06:47:44.513Z,46.53
2019-01-24T06:50:15.364Z,45.87
2019-01-24T06:52:43.573Z,45.90
2019-01-24T06:55:15.063Z,45.77
2019-01-24T06:57:43.280Z,46.30
2019-01-24T07:00:14.598Z,45.47
2019-01-24T07:02:42.812Z,58.90
2019-01-24T07:05:11.045Z,50.10
2019-01-24T07:07:39.268Z,48.60
2019-01-24T07:10:13.513Z,42.20
2019-01-24T07:12:42.501Z,44.97
2019-01-24T07:15:14.236Z,46.43
2019-01-24T07:17:42.515Z,47.00
2019-01-24T07:20:16.589Z,45.67
2019-01-24T07:22:44.826Z,44.97
2019-01-24T07:25:19.020Z,47.60
2019-01-24T07:27:47.269Z,46.03
2019-01-24T07:30:18.245Z,47.93
2019-01-24T07:32:46.460Z,46.93
2019-01-24T07:35:17.329Z,46.23
2019-01-24T07:37:45.618Z,43.70
2019-01-24T07:40:16.885Z,45.10
2019-01-24T07:42:45.185Z,45.13
2019-01-24T07:45:16.812Z,46.27
2019-01-24T07:47:45.024Z,45.33
2019-01-24T07:50:14.607Z,46.03
2019-01-24T07:52:42.830Z,45.93
2019-01-24T07:55:13.509Z,45.30
2019-01-24T07:57:41.876Z,44.50
2019-01-24T08:00:22.468Z,47.03
2019-01-24T08:02:50.700Z,44.27
2019-01-24T08:05:18.909Z,44.20
2019-01-24T08:07:47.899Z,45.17
2019-01-24T08:10:18.805Z,45.57
2019-01-24T08:12:47.025Z,46.97
2019-01-24T08:15:18.265Z,46.70
2019-01-24T08:17:46.489Z,44.87
2019-01-24T08:20:20.449Z,46.57
2019-01-24T08:22:48.672Z,48.00
2019-01-24T08:25:17.141Z,45.97
2019-01-24T08:27:45.403Z,47.83
2019-01-24T08:30:19.762Z,46.33
2019-01-24T08:32:47.982Z,46.00
2019-01-24T08:35:16.192Z,46.03
2019-01-24T08:38:04.374Z,47.00
2019-01-24T08:40:32.585Z,45.77
2019-01-24T08:43:00.805Z,47.03
2019-01-24T08:45:29.021Z,45.93
2019-01-24T08:47:57.246Z,46.03
2019-01-24T08:50:26.697Z,47.80
2019-01-24T08:52:54.917Z,46.23
2019-01-24T08:55:32.588Z,48.80
2019-01-24T08:58:00.802Z,45.00
2019-01-24T09:00:29.025Z,44.73
2019-01-24T09:02:57.237Z,46.00
2019-01-24T09:05:25.454Z,46.87
2019-01-24T09:07:53.679Z,44.93
2019-01-24T09:10:27.944Z,48.83
2019-01-24T09:12:56.165Z,45.83
2019-01-24T09:15:24.485Z,46.60
2019-01-24T09:17:52.709Z,45.67
2019-01-24T09:20:21.787Z,48.57
2019-01-24T09:22:55.094Z,49.53
2019-01-24T09:25:19.965Z,50.90
2019-01-24T09:27:48.198Z,49.60
2019-01-24T09:30:19.212Z,48.43
2019-01-24T09:32:47.449Z,48.63
2019-01-24T09:35:15.669Z,48.10
2019-01-24T09:37:43.893Z,44.87
2019-01-24T09:40:15.423Z,47.37
2019-01-24T09:42:43.642Z,44.50
2019-01-24T09:45:15.273Z,44.23
2019-01-24T09:47:43.489Z,45.07
2019-01-24T09:50:14.973Z,44.40
2019-01-24T09:52:43.200Z,44.17
2019-01-24T09:55:11.413Z,44.17
2019-01-24T09:57:39.624Z,45.13
2019-01-24T10:00:16.949Z,46.73
2019-01-24T10:02:45.184Z,44.37
2019-01-24T10:05:13.464Z,43.47
2019-01-24T10:07:41.718Z,46.33
2019-01-24T10:10:13.259Z,43.30
2019-01-24T10:12:41.569Z,45.57
2019-01-24T10:15:12.822Z,43.53
2019-01-24T10:17:41.029Z,43.43
2019-01-24T10:20:14.593Z,47.00
2019-01-24T10:22:42.814Z,43.93
2019-01-24T10:25:15.534Z,46.83
2019-01-24T10:27:43.798Z,42.50
2019-01-24T10:30:15.113Z,44.67
2019-01-24T10:32:43.329Z,44.17
2019-01-24T10:35:11.542Z,44.73
2019-01-24T10:37:39.769Z,42.13
2019-01-24T10:40:16.989Z,46.13
2019-01-24T10:42:45.193Z,43.87
2019-01-24T10:45:16.941Z,45.00
2019-01-24T10:47:45.177Z,47.07
2019-01-24T10:50:16.627Z,45.73
2019-01-24T10:52:44.851Z,47.07
2019-01-24T10:55:17.754Z,44.73
2019-01-24T10:57:46.054Z,46.27
2019-01-24T11:00:20.127Z,46.50
2019-01-24T11:02:48.344Z,46.30
2019-01-24T11:05:19.493Z,46.67
2019-01-24T11:07:48.373Z,44.87
2019-01-24T11:10:19.471Z,45.20
2019-01-24T11:12:48.544Z,44.70
2019-01-24T11:15:19.946Z,45.70
2019-01-24T11:17:48.171Z,45.97
2019-01-24T11:20:18.820Z,43.80
2019-01-24T11:22:48.074Z,42.93
2019-01-24T11:25:23.726Z,44.53
2019-01-24T11:27:51.981Z,44.83
2019-01-24T11:30:25.565Z,44.63
2019-01-24T11:32:53.789Z,50.43
2019-01-24T11:35:30.676Z,46.40
2019-01-24T11:37:58.888Z,45.07
2019-01-24T11:40:27.117Z,43.47
2019-01-24T11:42:55.340Z,44.30
2019-01-24T11:45:26.825Z,44.57
2019-01-24T11:47:55.041Z,43.73
2019-01-24T11:50:23.265Z,45.67
2019-01-24T11:52:51.474Z,46.13
2019-01-24T11:55:21.921Z,45.57
2019-01-24T11:57:50.146Z,44.33
2019-01-24T12:00:40.872Z,46.27
2019-01-24T12:03:09.084Z,46.07
2019-01-24T12:05:37.306Z,44.70
2019-01-24T12:08:06.458Z,44.93
2019-01-24T12:10:34.721Z,43.40
2019-01-24T12:13:03.023Z,44.97
2019-01-24T12:15:32.198Z,43.13
2019-01-24T12:18:00.417Z,42.83
2019-01-24T12:20:28.621Z,41.67
2019-01-24T12:22:56.840Z,38.40
2019-01-24T12:25:25.052Z,43.20
2019-01-24T12:27:53.257Z,42.63
2019-01-24T12:30:24.728Z,41.27
2019-01-24T12:32:53.013Z,39.40
2019-01-24T12:35:21.216Z,43.67
2019-01-24T12:37:49.432Z,44.33
2019-01-24T12:40:18.027Z,42.30
2019-01-24T12:42:46.446Z,42.03
2019-01-24T12:45:22.985Z,42.87
2019-01-24T12:47:51.224Z,39.00
2019-01-24T12:50:20.195Z,42.83
2019-01-24T12:52:48.400Z,42.00
2019-01-24T12:55:16.768Z,40.77
2019-01-24T12:57:45.045Z,41.17
2019-01-24T13:00:16.526Z,41.40
2019-01-24T13:02:44.741Z,39.47
2019-01-24T13:05:12.992Z,42.37
2019-01-24T13:07:41.221Z,43.67
2019-01-24T13:10:15.534Z,42.07
2019-01-24T13:12:43.840Z,41.73
2019-01-24T13:15:15.278Z,41.83
2019-01-24T13:17:43.484Z,41.60
2019-01-24T13:20:15.140Z,41.23
2019-01-24T13:22:43.358Z,39.40
2019-01-24T13:25:17.665Z,41.80
2019-01-24T13:27:45.876Z,41.43
2019-01-24T13:30:17.588Z,41.13
2019-01-24T13:32:45.810Z,39.40
2019-01-24T13:35:14.041Z,40.50
2019-01-24T13:37:42.261Z,39.53
2019-01-24T13:40:16.152Z,40.43
2019-01-24T13:42:44.360Z,37.47
2019-01-24T13:45:15.824Z,37.93
2019-01-24T13:47:44.077Z,38.67
2019-01-24T13:50:15.688Z,38.87
2019-01-24T13:52:43.954Z,38.07
2019-01-24T13:55:12.182Z,39.50
2019-01-24T13:57:40.404Z,39.63
2019-01-24T14:00:20.566Z,39.33
2019-01-24T14:02:57.713Z,39.53
2019-01-24T14:05:25.959Z,38.90
2019-01-24T14:07:54.254Z,40.90
2019-01-24T14:10:22.452Z,40.13
2019-01-24T14:12:50.683Z,38.23
2019-01-24T14:15:19.784Z,40.77
2019-01-24T14:17:47.994Z,41.37
2019-01-24T14:20:21.413Z,40.60
2019-01-24T14:22:49.635Z,39.70
2019-01-24T14:25:20.854Z,39.67
2019-01-24T14:27:49.060Z,40.23
2019-01-24T14:30:23.017Z,40.93
2019-01-24T14:32:51.313Z,38.07
2019-01-24T14:35:19.596Z,36.57
2019-01-24T14:37:48.181Z,36.27
2019-01-24T14:40:16.497Z,34.17
2019-01-24T14:42:44.843Z,33.07
2019-01-24T14:45:22.024Z,34.97
2019-01-24T14:47:50.228Z,35.60
2019-01-24T14:50:21.054Z,34.43
2019-01-24T14:52:49.269Z,36.00
2019-01-24T14:55:17.478Z,35.43
2019-01-24T14:57:45.703Z,36.03
2019-01-24T15:00:22.893Z,36.17
2019-01-24T15:02:51.108Z,35.50
2019-01-24T15:05:19.358Z,35.80
2019-01-24T15:07:47.705Z,38.80
2019-01-24T15:10:16.046Z,36.80
2019-01-24T15:12:44.252Z,37.30
2019-01-24T15:15:15.433Z,36.60
2019-01-24T15:17:43.641Z,37.27
2019-01-24T15:20:19.417Z,37.77
2019-01-24T15:22:47.674Z,36.60
2019-01-24T15:25:18.989Z,37.47
2019-01-24T15:27:47.214Z,37.80
2019-01-24T15:30:26.770Z,38.50
2019-01-24T15:32:54.991Z,37.10
2019-01-24T15:35:23.210Z,38.30
2019-01-24T15:37:54.676Z,38.43
2019-01-24T15:40:29.821Z,37.63
2019-01-24T15:42:58.032Z,38.40
2019-01-24T15:45:26.254Z,42.40
2019-01-24T15:47:54.477Z,40.60
2019-01-24T15:50:23.777Z,38.73
2019-01-24T15:52:52.103Z,37.80
2019-01-24T15:55:20.322Z,36.97
2019-01-24T15:57:48.554Z,38.30
2019-01-24T16:00:31.989Z,38.43
2019-01-24T16:03:00.266Z,39.17
2019-01-24T16:05:28.487Z,37.73
2019-01-24T16:08:01.607Z,38.57
2019-01-24T16:10:26.738Z,38.73
2019-01-24T16:12:55.048Z,36.83
2019-01-24T16:15:32.593Z,39.10
2019-01-24T16:18:00.822Z,38.13
2019-01-24T16:20:30.585Z,37.63
2019-01-24T16:22:59.411Z,37.77
2019-01-24T16:25:30.898Z,38.97
2019-01-24T16:27:59.146Z,39.20
2019-01-24T16:30:30.621Z,39.23
2019-01-24T16:32:58.853Z,41.37
2019-01-24T16:35:27.134Z,49.45
2019-01-24T16:37:55.371Z,42.47
2019-01-24T16:40:26.913Z,40.97
2019-01-24T16:42:55.141Z,40.20
2019-01-24T16:45:26.394Z,37.90
2019-01-24T16:47:54.612Z,41.80
2019-01-24T16:50:25.178Z,50.33
2019-01-24T16:52:53.406Z,49.53
2019-01-24T16:55:21.633Z,39.20
2019-01-24T16:57:51.118Z,40.10
2019-01-24T17:00:24.358Z,40.37
2019-01-24T17:02:52.632Z,39.77
2019-01-24T17:05:20.855Z,41.17
2019-01-24T17:07:49.084Z,40.60
2019-01-24T17:10:25.600Z,39.53
2019-01-24T17:12:53.826Z,42.03
2019-01-24T17:15:22.045Z,43.37
2019-01-24T17:17:50.263Z,52.85
2019-01-24T17:20:24.907Z,42.50
2019-01-24T17:22:53.131Z,42.63
2019-01-24T17:25:23.670Z,39.43
2019-01-24T17:27:51.907Z,39.37
2019-01-24T17:30:29.049Z,39.80
2019-01-24T17:32:57.513Z,46.57
2019-01-24T17:35:25.729Z,59.03
2019-01-24T17:37:54.029Z,41.87
2019-01-24T17:40:27.737Z,39.70
2019-01-24T17:42:55.949Z,42.60
2019-01-24T17:45:24.181Z,39.43
2019-01-24T17:47:52.421Z,40.00
2019-01-24T17:50:20.638Z,40.27
2019-01-24T17:52:48.861Z,37.90
2019-01-24T17:55:34.111Z,38.97
2019-01-24T17:58:02.445Z,37.80
2019-01-24T18:00:32.301Z,37.63
2019-01-24T18:03:00.515Z,37.77
2019-01-24T18:05:28.761Z,37.70
2019-01-24T18:07:56.982Z,42.60
2019-01-24T18:10:30.309Z,40.27
2019-01-24T18:12:58.537Z,38.90
2019-01-24T18:15:32.656Z,38.30
2019-01-24T18:18:00.873Z,40.37
2019-01-24T18:20:34.197Z,39.17
2019-01-24T18:23:02.478Z,38.23
2019-01-24T18:25:30.706Z,40.23
2019-01-24T18:27:58.913Z,41.03
2019-01-24T18:30:29.565Z,41.67
2019-01-24T18:32:57.805Z,42.13
2019-01-24T18:35:26.786Z,42.03
2019-01-24T18:37:55.008Z,43.73
2019-01-24T18:40:30.797Z,48.77
2019-01-24T18:43:00.099Z,44.07
2019-01-24T18:45:46.245Z,43.90
2019-01-24T18:48:14.469Z,44.30
2019-01-24T18:50:42.701Z,42.07
2019-01-24T18:53:10.960Z,46.77
2019-01-24T18:55:39.277Z,42.53
2019-01-24T18:58:07.497Z,42.90
2019-01-24T19:00:37.731Z,42.57
2019-01-24T19:03:07.981Z,43.73
2019-01-24T19:05:36.272Z,44.60
2019-01-24T19:08:05.432Z,44.43
2019-01-24T19:10:33.725Z,44.27
2019-01-24T19:13:01.993Z,44.03
2019-01-24T19:15:30.208Z,44.20
2019-01-24T19:17:58.445Z,45.33
2019-01-24T19:20:26.666Z,45.70
2019-01-24T19:22:54.899Z,44.20
2019-01-24T19:25:23.112Z,45.80
2019-01-24T19:27:51.346Z,45.57
2019-01-24T19:30:31.438Z,43.70
2019-01-24T19:32:59.765Z,44.17
2019-01-24T19:35:28.070Z,46.10
2019-01-24T19:37:57.437Z,45.97
2019-01-24T19:40:27.381Z,48.00
2019-01-24T19:42:55.843Z,49.77
2019-01-24T19:45:26.809Z,50.87
2019-01-24T19:47:55.028Z,50.10
2019-01-24T19:50:29.937Z,49.77
2019-01-24T19:52:58.920Z,49.17
2019-01-24T19:55:27.833Z,51.57
2019-01-24T19:57:57.194Z,51.40
2019-01-24T20:00:30.621Z,50.77
2019-01-24T20:02:58.834Z,48.30
2019-01-24T20:05:27.060Z,47.27
2019-01-24T20:07:55.303Z,48.57
2019-01-24T20:10:25.513Z,46.50
2019-01-24T20:12:53.808Z,56.87
2019-01-24T20:15:25.088Z,74.80
2019-01-24T20:17:53.316Z,74.50
2019-01-24T20:20:23.175Z,57.37
2019-01-24T20:22:51.466Z,52.47
2019-01-24T20:25:22.981Z,50.93
2019-01-24T20:27:51.205Z,87.83
2019-01-24T20:30:22.353Z,49.00
2019-01-24T20:32:50.574Z,47.13
2019-01-24T20:35:25.349Z,50.17
2019-01-24T20:37:53.694Z,59.70
2019-01-24T20:40:22.051Z,50.67
2019-01-24T20:42:50.253Z,52.13
2019-01-24T20:45:18.565Z,47.23
2019-01-24T20:47:46.770Z,46.33
2019-01-24T20:50:15.932Z,49.73
2019-01-24T20:52:44.193Z,48.17
2019-01-24T20:55:16.918Z,50.47
2019-01-24T20:57:45.181Z,48.40
2019-01-24T21:00:21.973Z,46.13
2019-01-24T21:02:50.211Z,47.90
2019-01-24T21:05:21.249Z,44.33
2019-01-24T21:07:49.530Z,47.43
2019-01-24T21:10:20.874Z,50.60
2019-01-24T21:12:49.102Z,48.73
2019-01-24T21:15:20.059Z,48.73
2019-01-24T21:17:48.362Z,49.00
2019-01-24T21:20:20.001Z,49.30
2019-01-24T21:22:48.222Z,59.47
2019-01-24T21:25:19.391Z,52.20
2019-01-24T21:27:47.609Z,47.77
2019-01-24T21:30:36.781Z,47.43
2019-01-24T21:33:07.442Z,47.67
2019-01-24T21:35:35.668Z,46.90
2019-01-24T21:38:04.529Z,47.37
2019-01-24T21:40:32.745Z,47.63
2019-01-24T21:43:00.974Z,46.43
2019-01-24T21:45:32.402Z,48.27
2019-01-24T21:48:00.609Z,54.35
2019-01-24T21:50:31.756Z,50.60
2019-01-24T21:53:00.048Z,48.20
2019-01-24T21:55:28.270Z,49.67
2019-01-24T21:57:56.491Z,47.47
2019-01-24T22:00:27.740Z,48.37
2019-01-24T22:02:55.952Z,46.37
2019-01-24T22:05:24.248Z,49.00
2019-01-24T22:07:52.467Z,48.47
2019-01-24T22:10:23.989Z,47.20
2019-01-24T22:12:53.076Z,48.03
2019-01-24T22:15:26.718Z,49.73
2019-01-24T22:17:54.928Z,50.80
2019-01-24T22:20:23.142Z,47.33
2019-01-24T22:22:51.380Z,49.97
2019-01-24T22:25:22.848Z,47.00
2019-01-24T22:27:51.061Z,48.93
2019-01-24T22:30:23.222Z,51.37
2019-01-24T22:32:51.436Z,49.47
2019-01-24T22:35:19.652Z,51.30
2019-01-24T22:37:47.890Z,49.43
2019-01-24T22:40:16.104Z,49.67
2019-01-24T22:42:44.329Z,47.97
2019-01-24T22:45:21.217Z,48.47
2019-01-24T22:47:49.429Z,48.10
2019-01-24T22:50:17.658Z,49.47
2019-01-24T22:52:46.984Z,48.77
2019-01-24T22:55:15.206Z,52.33
2019-01-24T22:57:43.420Z,48.83
2019-01-24T23:00:49.809Z,48.03
2019-01-24T23:03:24.461Z,46.43
2019-01-24T23:05:52.688Z,46.83
2019-01-24T23:08:20.906Z,49.70
2019-01-24T23:11:08.625Z,50.37
2019-01-24T23:13:36.849Z,51.33
2019-01-24T23:16:05.135Z,55.93
2019-01-24T23:18:33.365Z,47.67
2019-01-24T23:21:01.578Z,55.40
2019-01-24T23:23:29.800Z,50.50
2019-01-24T23:25:58.016Z,51.17
2019-01-24T23:28:26.234Z,49.90
2019-01-24T23:30:54.468Z,47.40
2019-01-24T23:33:22.680Z,49.83
2019-01-24T23:35:50.891Z,50.37
2019-01-24T23:38:19.133Z,50.77
2019-01-24T23:40:47.348Z,46.87
2019-01-24T23:43:15.564Z,49.63
2019-01-24T23:45:43.791Z,50.47
2019-01-24T23:48:12.012Z,53.37
2019-01-24T23:50:40.228Z,49.27
2019-01-24T23:53:08.444Z,49.90
2019-01-24T23:55:36.656Z,50.73
2019-01-24T23:58:04.905Z,49.63
